Time;durP1;ratioP1;P1;durP2;ratioP2;P2;SDS_P1;SDS_P2;PMS_P1;PMS_P2;Temp;Humidity;BMP_temperature;BMP_pressure;BME280_temperature;BME280_humidity;BME280_pressure;Samples;Min_cycle;Max_cycle;Signal;HPM_P1;HPM_P2
2023/07/15 04:09:44;;;;;;;2.20;2.10;;;;;;;;;;5372860;23;20226;-67
2023/07/15 04:12:11;;;;;;;1.92;1.92;;;;;;;;;;5014086;28;20222;-68
2023/07/15 04:14:38;;;;;;;2.38;2.28;;;;;;;;;;5020500;28;20198;-69
2023/07/15 04:17:05;;;;;;;2.53;2.42;;;;;;;;;;5017686;28;20210;-67
2023/07/15 04:19:32;;;;;;;2.22;2.15;;;;;;;;;;5017588;28;20218;-69
2023/07/15 04:21:59;;;;;;;2.13;2.10;;;;;;;;;;5016680;28;20208;-68
2023/07/15 04:24:26;;;;;;;1.95;1.95;;;;;;;;;;5020658;28;20380;-68
2023/07/15 04:26:55;;;;;;;2.50;2.40;;;;;;;;;;5015882;28;20206;-68
2023/07/15 04:29:22;;;;;;;2.05;2.00;;;;;;;;;;5013923;28;20226;-68
2023/07/15 04:31:49;;;;;;;2.00;1.92;;;;;;;;;;5013935;28;20202;-68
2023/07/15 04:34:16;;;;;;;2.15;2.05;;;;;;;;;;5013557;28;20696;-68
2023/07/15 04:36:43;;;;;;;2.05;2.03;;;;;;;;;;5013964;28;20212;-68
2023/07/15 04:39:10;;;;;;;2.08;1.98;;;;;;;;;;5013651;28;20588;-68
2023/07/15 04:41:37;;;;;;;2.50;2.40;;;;;;;;;;5013827;28;20205;-68
2023/07/15 04:44:06;;;;;;;2.25;2.15;;;;;;;;;;5013732;28;20213;-68
2023/07/15 04:46:34;;;;;;;1.55;1.55;;;;;;;;;;5013781;28;20288;-68
2023/07/15 04:49:01;;;;;;;1.65;1.65;;;;;;;;;;5013951;28;20225;-68
2023/07/15 04:51:28;;;;;;;2.20;2.10;;;;;;;;;;5013742;28;20205;-68
2023/07/15 04:53:56;;;;;;;2.00;1.90;;;;;;;;;;5013725;28;20208;-68
2023/07/15 04:56:23;;;;;;;2.38;2.25;;;;;;;;;;5013754;28;20541;-68
2023/07/15 04:58:50;;;;;;;2.08;1.98;;;;;;;;;;5013604;28;20228;-68
2023/07/15 05:01:19;;;;;;;2.30;2.20;;;;;;;;;;5013344;28;20201;-68
2023/07/15 05:03:46;;;;;;;2.28;2.10;;;;;;;;;;5013595;28;20267;-68
2023/07/15 05:06:13;;;;;;;2.00;1.90;;;;;;;;;;5014186;28;20244;-68
2023/07/15 05:08:42;;;;;;;2.20;2.10;;;;;;;;;;5013767;28;20253;-68
2023/07/15 05:11:09;;;;;;;1.70;1.70;;;;;;;;;;5013409;28;20244;-68
2023/07/15 05:13:36;;;;;;;1.90;1.80;;;;;;;;;;5013653;28;20205;-68
2023/07/15 05:16:03;;;;;;;2.08;1.95;;;;;;;;;;5013550;28;20204;-68
2023/07/15 05:18:31;;;;;;;1.80;1.70;;;;;;;;;;5013461;28;20221;-68
2023/07/15 05:20:58;;;;;;;1.92;1.92;;;;;;;;;;5013096;28;20661;-68
2023/07/15 05:23:28;;;;;;;1.80;1.70;;;;;;;;;;5013416;28;20206;-68
2023/07/15 05:25:56;;;;;;;1.70;1.70;;;;;;;;;;5013069;28;20580;-68
2023/07/15 05:28:26;;;;;;;1.73;1.73;;;;;;;;;;5013408;28;20662;-68
2023/07/15 05:30:53;;;;;;;2.00;2.00;;;;;;;;;;5013563;28;20292;-68
2023/07/15 05:33:20;;;;;;;1.80;1.80;;;;;;;;;;5013701;28;20212;-68
2023/07/15 05:35:48;;;;;;;1.83;1.77;;;;;;;;;;5013325;28;20202;-68
2023/07/15 05:38:15;;;;;;;1.75;1.75;;;;;;;;;;5013307;28;20233;-68
2023/07/15 05:40:42;;;;;;;1.92;1.83;;;;;;;;;;5013512;28;20204;-68
2023/07/15 05:43:09;;;;;;;2.00;1.90;;;;;;;;;;5013294;28;20209;-68
2023/07/15 05:45:36;;;;;;;2.78;2.58;;;;;;;;;;5013235;28;20229;-69
2023/07/15 05:48:03;;;;;;;2.38;2.28;;;;;;;;;;5013013;28;20628;-69
2023/07/15 05:50:34;;;;;;;3.03;2.80;;;;;;;;;;5014227;28;20205;-69
2023/07/15 05:53:02;;;;;;;3.05;2.85;;;;;;;;;;5016775;28;20185;-69
2023/07/15 05:55:29;;;;;;;3.42;3.15;;;;;;;;;;5016408;28;20722;-69
2023/07/15 05:57:57;;;;;;;3.30;3.10;;;;;;;;;;5016658;28;20205;-70
2023/07/15 06:00:24;;;;;;;3.20;3.00;;;;;;;;;;5016601;28;20222;-69
2023/07/15 06:02:51;;;;;;;3.45;3.22;;;;;;;;;;5016298;28;20687;-69
2023/07/15 06:05:18;;;;;;;3.00;2.83;;;;;;;;;;5016432;28;20221;-69
2023/07/15 06:07:45;;;;;;;2.80;2.70;;;;;;;;;;5016440;28;20205;-69
2023/07/15 06:10:13;;;;;;;2.65;2.50;;;;;;;;;;5016367;28;20226;-69
2023/07/15 06:12:40;;;;;;;2.80;2.60;;;;;;;;;;5016089;28;20582;-69
2023/07/15 06:15:08;;;;;;;2.83;2.63;;;;;;;;;;5016370;28;20201;-69
2023/07/15 06:17:35;;;;;;;3.30;3.10;;;;;;;;;;5016975;28;20208;-69
2023/07/15 06:20:05;;;;;;;2.40;2.30;;;;;;;;;;5019283;28;20228;-68
2023/07/15 06:22:32;;;;;;;2.60;2.45;;;;;;;;;;5022188;28;20265;-70
2023/07/15 06:25:00;;;;;;;2.97;2.78;;;;;;;;;;5021351;28;20217;-68
2023/07/15 06:27:30;;;;;;;3.60;3.05;;;;;;;;;;5021084;28;20269;-68
2023/07/15 06:29:57;;;;;;;2.95;2.75;;;;;;;;;;5021629;28;20230;-68
2023/07/15 06:32:24;;;;;;;3.88;3.13;;;;;;;;;;5021410;28;20205;-68
2023/07/15 06:34:52;;;;;;;5.90;3.28;;;;;;;;;;5021057;28;20194;-68
2023/07/15 06:37:20;;;;;;;3.88;3.17;;;;;;;;;;5021214;28;20212;-68
2023/07/15 06:39:47;;;;;;;3.78;3.45;;;;;;;;;;5020822;28;20759;-68
2023/07/15 06:42:14;;;;;;;3.42;3.13;;;;;;;;;;5021157;28;20572;-68
2023/07/15 06:44:43;;;;;;;3.33;3.13;;;;;;;;;;5021720;28;20214;-69
2023/07/15 06:47:10;;;;;;;3.90;3.60;;;;;;;;;;5020136;28;20225;-70
2023/07/15 06:49:39;;;;;;;3.40;3.20;;;;;;;;;;5022739;28;20225;-69
2023/07/15 06:52:07;;;;;;;3.70;3.38;;;;;;;;;;5020928;28;20237;-68
2023/07/15 06:54:34;;;;;;;3.28;3.08;;;;;;;;;;5020794;28;20284;-69
2023/07/15 06:57:02;;;;;;;3.15;2.95;;;;;;;;;;5020620;28;20198;-69
2023/07/15 06:59:29;;;;;;;3.22;2.92;;;;;;;;;;5018817;28;20632;-68
2023/07/15 07:01:58;;;;;;;3.15;2.92;;;;;;;;;;5017359;28;20209;-68
2023/07/15 07:04:25;;;;;;;4.47;3.38;;;;;;;;;;5015919;28;20209;-68
2023/07/15 07:06:52;;;;;;;3.30;3.10;;;;;;;;;;5015482;28;20665;-69
2023/07/15 07:09:19;;;;;;;3.40;3.10;;;;;;;;;;5016011;28;20221;-69
2023/07/15 07:11:46;;;;;;;3.35;3.13;;;;;;;;;;5015058;28;20205;-70
2023/07/15 07:14:13;;;;;;;3.20;2.90;;;;;;;;;;5015436;28;20665;-68
2023/07/15 07:16:40;;;;;;;3.22;2.92;;;;;;;;;;5015861;28;20202;-70
2023/07/15 07:19:08;;;;;;;3.38;3.17;;;;;;;;;;5015174;28;20229;-69
2023/07/15 07:21:35;;;;;;;2.60;2.40;;;;;;;;;;5015331;28;20206;-70
2023/07/15 07:24:02;;;;;;;2.58;2.47;;;;;;;;;;5015164;28;20276;-70
2023/07/15 07:26:30;;;;;;;2.63;2.53;;;;;;;;;;5014968;28;20228;-70
2023/07/15 07:28:57;;;;;;;2.45;2.25;;;;;;;;;;5014942;28;20228;-69
2023/07/15 07:31:24;;;;;;;2.55;2.25;;;;;;;;;;5014730;28;20740;-69
2023/07/15 07:33:51;;;;;;;1.85;1.85;;;;;;;;;;5014936;28;20198;-70
2023/07/15 07:36:19;;;;;;;2.03;2.00;;;;;;;;;;5014922;28;20201;-70
2023/07/15 07:38:46;;;;;;;2.28;2.13;;;;;;;;;;5014567;28;20712;-70
2023/07/15 07:41:15;;;;;;;1.77;1.70;;;;;;;;;;5014824;28;20212;-70
2023/07/15 07:43:42;;;;;;;1.77;1.70;;;;;;;;;;5014331;28;20208;-70
2023/07/15 07:46:10;;;;;;;1.73;1.63;;;;;;;;;;5014417;28;20228;-70
2023/07/15 07:48:37;;;;;;;1.90;1.80;;;;;;;;;;5014661;28;20236;-69
2023/07/15 08:00:22;;;;;;;2.90;2.70;;;;;;;;;;5124197;23;20244;-69
2023/07/15 08:02:49;;;;;;;3.00;2.45;;;;;;;;;;4994814;28;20209;-69
2023/07/15 08:05:17;;;;;;;2.50;2.30;;;;;;;;;;4994771;28;20225;-69
2023/07/15 08:07:44;;;;;;;1.77;1.77;;;;;;;;;;4994758;28;20206;-69
2023/07/15 08:10:11;;;;;;;2.25;2.15;;;;;;;;;;4994816;28;20238;-69
2023/07/15 08:12:38;;;;;;;2.05;1.95;;;;;;;;;;4994282;28;20213;-69
2023/07/15 08:15:06;;;;;;;1.80;1.70;;;;;;;;;;4994427;28;20686;-69
2023/07/15 08:17:34;;;;;;;1.50;1.50;;;;;;;;;;4994524;28;20205;-69
2023/07/15 08:20:01;;;;;;;1.30;1.30;;;;;;;;;;4994103;28;20636;-69
2023/07/15 08:22:28;;;;;;;1.10;1.10;;;;;;;;;;4994499;28;20202;-69
2023/07/15 08:24:55;;;;;;;1.20;1.20;;;;;;;;;;4994308;28;20260;-69
2023/07/15 08:27:22;;;;;;;1.10;1.10;;;;;;;;;;4994662;28;20213;-68
2023/07/15 08:29:49;;;;;;;0.98;0.98;;;;;;;;;;4994391;28;20249;-68
2023/07/15 08:32:16;;;;;;;1.50;1.40;;;;;;;;;;4994304;28;20665;-68
2023/07/15 08:34:58;;;;;;;1.02;1.02;;;;;;;;;;4993997;28;20206;-68
2023/07/15 08:37:27;;;;;;;1.15;1.15;;;;;;;;;;4994018;28;20653;-68
2023/07/15 08:39:54;;;;;;;1.30;1.30;;;;;;;;;;4993894;28;20228;-68
2023/07/15 08:42:21;;;;;;;1.20;1.20;;;;;;;;;;4994200;28;20202;-68
2023/07/15 08:44:48;;;;;;;1.38;1.38;;;;;;;;;;5034940;23;20229;-71
2023/07/15 08:47:17;;;;;;;1.30;1.30;;;;;;;;;;5013798;28;20202;-71
2023/07/15 08:49:44;;;;;;;1.05;1.05;;;;;;;;;;5013738;28;20201;-71
2023/07/15 08:52:12;;;;;;;1.30;1.30;;;;;;;;;;5013808;28;20228;-71
2023/07/15 08:54:41;;;;;;;1.27;1.27;;;;;;;;;;5013436;28;20724;-71
2023/07/15 08:57:08;;;;;;;1.08;1.08;;;;;;;;;;5013725;28;20197;-71
2023/07/15 08:59:35;;;;;;;1.30;1.30;;;;;;;;;;5013656;28;20212;-72
2023/07/15 09:02:03;;;;;;;1.17;1.17;;;;;;;;;;5013578;28;20212;-72
2023/07/15 09:04:30;;;;;;;1.20;1.20;;;;;;;;;;5013437;28;20308;-72
2023/07/15 09:06:57;;;;;;;1.38;1.38;;;;;;;;;;5013527;28;20259;-72
2023/07/15 09:09:32;;;;;;;1.23;1.23;;;;;;;;;;5013589;28;20212;-72
2023/07/15 09:12:02;;;;;;;1.30;1.20;;;;;;;;;;5013684;28;20209;-72
2023/07/15 09:14:29;;;;;;;1.77;1.75;;;;;;;;;;5013374;28;20234;-72
2023/07/15 09:16:59;;;;;;;1.40;1.40;;;;;;;;;;5013575;28;20186;-72
2023/07/15 09:19:28;;;;;;;1.50;1.50;;;;;;;;;;5013740;28;20190;-72
2023/07/15 09:22:04;;;;;;;1.60;1.60;;;;;;;;;;5013530;28;20245;-73
2023/07/15 09:24:32;;;;;;;1.20;1.20;;;;;;;;;;5013400;28;20271;-72
2023/07/15 09:27:01;;;;;;;1.45;1.40;;;32.00;60.20;;;;;;5017096;28;20221;-73
2023/07/15 09:29:28;;;;;;;1.50;1.50;;;32.00;59.80;;;;;;5017320;28;20336;-73
2023/07/15 09:31:55;;;;;;;1.60;1.50;;;32.00;61.30;;;;;;5017278;28;20213;-72
2023/07/15 09:34:22;;;;;;;1.40;1.40;;;32.10;57.90;;;;;;5017040;28;20723;-71
2023/07/15 09:36:49;;;;;;;1.55;1.55;;;32.10;60.80;;;;;;5017089;28;20201;-70
2023/07/15 09:39:22;;;;;;;1.48;1.48;;;32.20;60.30;;;;;;5016785;28;20210;-70
2023/07/15 09:42:02;;;;;;;1.40;1.40;;;32.20;61.20;;;;;;5017041;28;20192;-71
2023/07/15 09:44:39;;;;;;;1.67;1.58;;;32.20;61.70;;;;;;5016930;28;20294;-71
2023/07/15 09:47:07;;;;;;;1.60;1.50;;;32.10;60.40;;;;;;5017006;28;20217;-72
2023/07/15 09:49:34;;;;;;;1.73;1.63;;;32.10;61.30;;;;;;5016932;28;20288;-72
2023/07/15 09:52:06;;;;;;;1.23;1.23;;;32.10;60.50;;;;;;5016837;28;20208;-72
2023/07/15 09:54:33;;;;;;;1.27;1.27;;;32.40;62.70;;;;;;5016841;28;20225;-72
2023/07/15 09:57:04;;;;;;;2.55;1.13;;;32.70;60.80;;;;;;5017535;28;20186;-72
2023/07/15 09:59:35;;;;;;;1.10;1.10;;;33.00;58.70;;;;;;5017453;28;20692;-72
2023/07/15 10:02:06;;;;;;;1.40;1.40;;;33.20;58.70;;;;;;5016926;28;20189;-72
2023/07/15 10:04:35;;;;;;;1.13;1.13;;;33.20;56.30;;;;;;5016819;28;20236;-72
2023/07/15 10:07:03;;;;;;;1.08;1.08;;;33.20;56.30;;;;;;5016497;28;20228;-73
2023/07/15 10:09:31;;;;;;;1.90;1.00;;;33.20;56.00;;;;;;5016781;28;20206;-72
2023/07/15 10:11:59;;;;;;;1.30;1.23;;;33.00;56.50;;;;;;5016729;28;20201;-72
2023/07/15 10:14:30;;;;;;;3.67;1.25;;;32.70;57.70;;;;;;5016400;28;20225;-73
2023/07/15 10:17:10;;;;;;;1.35;1.35;;;32.50;58.20;;;;;;5016580;28;20193;-73
2023/07/15 10:19:42;;;;;;;1.27;1.27;;;32.20;59.70;;;;;;5016494;28;20221;-72
2023/07/15 10:22:08;;;;;;;1.30;1.30;;;32.10;61.20;;;;;;5016403;28;20205;-73
2023/07/15 10:24:35;;;;;;;1.25;1.25;;;31.90;59.40;;;;;;5016036;28;20225;-73
2023/07/15 10:27:06;;;;;;;1.20;1.20;;;31.80;61.80;;;;;;5015727;28;20217;-73
2023/07/15 10:29:34;;;;;;;1.50;1.50;;;31.60;63.20;;;;;;5015871;28;20629;-73
2023/07/15 10:32:12;;;;;;;1.25;1.25;;;31.40;62.60;;;;;;5016004;28;20209;-73
2023/07/15 10:34:41;;;;;;;1.08;1.08;;;31.40;61.90;;;;;;5015873;28;20225;-73
2023/07/15 10:37:10;;;;;;;1.17;1.17;;;31.30;59.20;;;;;;5015593;28;20275;-72
2023/07/15 10:39:38;;;;;;;1.48;1.48;;;31.30;59.90;;;;;;5016108;28;20198;-72
2023/07/15 10:42:10;;;;;;;1.35;1.35;;;31.30;61.10;;;;;;5016028;28;20224;-72
2023/07/15 10:44:44;;;;;;;1.40;1.30;;;31.20;59.90;;;;;;5015465;28;20237;-73
2023/07/15 10:47:14;;;;;;;1.45;1.45;;;31.10;57.40;;;;;;5015813;28;20301;-73
2023/07/15 10:49:41;;;;;;;1.58;1.58;;;31.10;59.20;;;;;;5015493;28;20616;-73
2023/07/15 10:52:09;;;;;;;1.40;1.30;;;31.00;58.20;;;;;;5015976;28;20206;-73
2023/07/15 10:54:37;;;;;;;1.40;1.40;;;30.90;59.20;;;;;;5015703;28;20308;-73
2023/07/15 10:57:08;;;;;;;1.40;1.40;;;30.90;58.80;;;;;;5015941;28;20223;-73
2023/07/15 10:59:37;;;;;;;2.42;1.60;;;30.90;58.00;;;;;;5015629;28;20660;-73
2023/07/15 11:02:06;;;;;;;1.80;1.70;;;30.80;59.20;;;;;;5015755;28;20205;-73
2023/07/15 11:04:32;;;;;;;1.63;1.60;;;30.80;58.90;;;;;;5015546;28;20221;-72
2023/07/15 11:07:01;;;;;;;1.40;1.40;;;30.80;61.90;;;;;;5015472;28;20228;-72
2023/07/15 11:09:28;;;;;;;1.48;1.48;;;30.90;64.20;;;;;;5016075;28;20252;-72
2023/07/15 11:11:55;;;;;;;1.67;1.58;;;30.90;61.50;;;;;;5015417;28;20213;-72
2023/07/15 11:14:26;;;;;;;1.73;1.63;;;30.90;62.20;;;;;;5015294;28;20225;-72
2023/07/15 11:16:54;;;;;;;1.50;1.50;;;30.90;59.60;;;;;;5015239;28;20186;-72
2023/07/15 11:19:23;;;;;;;1.83;1.80;;;31.00;59.80;;;;;;5015129;28;20209;-72
2023/07/15 11:21:52;;;;;;;1.83;1.80;;;31.00;61.90;;;;;;5015126;28;20256;-71
2023/07/15 11:24:21;;;;;;;1.77;1.35;;;31.10;66.50;;;;;;5014930;28;20228;-73
2023/07/15 11:26:48;;;;;;;1.60;1.60;;;31.20;68.40;;;;;;5014985;28;20224;-73
2023/07/15 11:29:16;;;;;;;1.48;1.38;;;31.20;68.80;;;;;;5015079;28;20206;-72
2023/07/15 11:31:43;;;;;;;1.40;1.40;;;31.30;68.00;;;;;;5014960;28;20201;-72
2023/07/15 11:34:11;;;;;;;1.50;1.50;;;31.30;62.80;;;;;;5014852;28;20225;-72
2023/07/15 11:36:40;;;;;;;1.30;1.30;;;31.20;59.60;;;;;;5014811;28;20238;-72
2023/07/15 11:39:07;;;;;;;1.85;1.75;;;31.20;62.10;;;;;;5014774;28;20583;-72
2023/07/15 11:41:34;;;;;;;1.48;1.48;;;31.10;64.40;;;;;;5015132;28;20209;-73
2023/07/15 11:44:01;;;;;;;1.27;1.27;;;31.10;64.40;;;;;;5014531;28;20267;-72
2023/07/15 11:46:29;;;;;;;1.73;1.63;;;31.10;64.20;;;;;;5014844;28;20224;-71
2023/07/15 11:48:59;;;;;;;1.20;1.20;;;31.10;63.80;;;;;;5014256;28;20217;-72
2023/07/15 11:51:26;;;;;;;1.88;1.85;;;31.20;66.50;;;;;;5014685;28;20206;-72
2023/07/15 11:53:55;;;;;;;1.52;1.52;;;31.20;63.20;;;;;;5014503;28;20225;-72
2023/07/15 11:56:38;;;;;;;1.30;1.30;;;31.10;65.80;;;;;;5014735;28;20615;-71
2023/07/15 11:59:07;;;;;;;1.40;1.40;;;31.10;65.80;;;;;;5015029;28;20193;-71
2023/07/15 12:01:34;;;;;;;1.77;1.70;;;31.10;64.80;;;;;;5014991;28;20575;-71
2023/07/15 12:04:01;;;;;;;1.40;1.40;;;31.10;66.00;;;;;;5014706;28;20221;-71
2023/07/15 12:06:28;;;;;;;1.55;1.40;;;31.20;64.40;;;;;;5014561;28;20228;-72
2023/07/15 12:09:08;;;;;;;1.30;1.30;;;31.20;64.10;;;;;;5014280;28;20202;-72
2023/07/15 12:11:35;;;;;;;1.40;1.40;;;31.20;66.90;;;;;;5014327;28;20237;-72
2023/07/15 12:14:03;;;;;;;1.38;1.38;;;31.20;66.80;;;;;;5013958;28;20591;-72
2023/07/15 12:16:31;;;;;;;1.50;1.50;;;31.10;64.20;;;;;;5014285;28;20201;-73
2023/07/15 12:18:59;;;;;;;1.63;1.55;;;31.10;67.30;;;;;;5014021;28;20673;-71
2023/07/15 12:21:26;;;;;;;1.50;1.50;;;31.20;70.50;;;;;;5014528;28;20227;-72
2023/07/15 12:23:52;;;;;;;2.25;1.30;;;31.20;66.10;;;;;;5014292;28;20225;-71
2023/07/15 12:26:20;;;;;;;1.70;1.60;;;31.20;65.80;;;;;;5013803;28;20723;-72
2023/07/15 12:28:48;;;;;;;1.83;1.60;;;31.20;64.10;;;;;;5014358;28;20210;-73
2023/07/15 12:31:14;;;;;;;1.40;1.40;;;31.20;63.50;;;;;;5014137;28;20217;-70
2023/07/15 12:33:41;;;;;;;1.65;1.65;;;31.10;66.00;;;;;;5013987;28;20229;-71
2023/07/15 12:36:10;;;;;;;1.88;1.88;;;31.10;67.10;;;;;;5014086;28;20213;-70
2023/07/15 12:38:37;;;;;;;1.70;1.60;;;31.10;67.70;;;;;;5014083;28;20212;-71
2023/07/15 12:41:05;;;;;;;2.17;1.95;;;31.10;69.20;;;;;;5013912;28;20640;-71
2023/07/15 12:43:33;;;;;;;2.20;2.10;;;31.10;68.60;;;;;;5013705;28;20233;-71
2023/07/15 12:46:00;;;;;;;1.90;1.80;;;31.20;67.30;;;;;;5017004;28;20205;-72
2023/07/15 12:48:27;;;;;;;1.60;1.60;;;31.20;65.40;;;;;;5023077;28;20229;-72
2023/07/15 12:50:54;;;;;;;1.50;1.50;;;31.20;66.10;;;;;;5021289;28;20207;-71
2023/07/15 12:53:22;;;;;;;1.70;1.70;;;31.20;66.20;;;;;;5019421;28;20221;-71
2023/07/15 12:55:49;;;;;;;1.45;1.45;;;31.20;67.50;;;;;;5013895;28;20197;-71
2023/07/15 12:58:16;;;;;;;1.40;1.40;;;31.20;63.40;;;;;;5013534;28;20546;-71
2023/07/15 13:00:44;;;;;;;1.35;1.35;;;31.20;60.30;;;;;;5017294;28;20205;-71
2023/07/15 13:03:11;;;;;;;1.27;1.27;;;31.30;62.00;;;;;;5017473;28;20217;-72
2023/07/15 13:05:38;;;;;;;1.40;1.30;;;31.30;61.60;;;;;;5017748;28;20204;-72
2023/07/15 13:08:05;;;;;;;1.40;1.40;;;31.30;61.90;;;;;;5017600;28;20225;-72
2023/07/15 13:10:31;;;;;;;1.70;1.70;;;31.30;60.50;;;;;;5017629;28;20213;-72
2023/07/15 13:12:58;;;;;;;1.33;1.33;;;31.40;60.10;;;;;;5017850;28;20213;-71
2023/07/15 13:15:25;;;;;;;1.30;1.30;;;31.40;59.70;;;;;;5017557;28;20253;-72
2023/07/15 13:17:54;;;;;;;1.20;1.20;;;31.50;57.90;;;;;;5017459;28;20225;-72
2023/07/15 13:20:20;;;;;;;1.38;1.38;;;31.50;57.50;;;;;;5017676;28;20202;-72
2023/07/15 13:22:47;;;;;;;1.40;1.40;;;31.40;58.50;;;;;;5017824;28;20209;-72
2023/07/15 13:25:14;;;;;;;1.30;1.30;;;31.50;60.10;;;;;;5017620;28;20224;-71
2023/07/15 13:27:41;;;;;;;1.45;1.45;;;31.50;61.10;;;;;;5017634;28;20205;-71
2023/07/15 13:30:10;;;;;;;1.20;1.20;;;31.50;62.80;;;;;;5017447;28;20582;-71
2023/07/15 13:32:36;;;;;;;1.77;1.40;;;31.40;61.70;;;;;;5017441;28;20201;-70
2023/07/15 13:35:05;;;;;;;1.40;1.40;;;31.40;59.20;;;;;;5017497;28;20233;-71
2023/07/15 13:37:32;;;;;;;1.08;1.08;;;31.40;59.00;;;;;;5017068;28;20666;-71
2023/07/15 13:39:59;;;;;;;1.13;1.13;;;31.50;57.80;;;;;;5017054;28;20208;-71
2023/07/15 13:42:25;;;;;;;1.27;1.27;;;31.60;57.10;;;;;;5017189;28;20587;-71
2023/07/15 13:44:52;;;;;;;1.38;1.38;;;31.60;57.10;;;;;;5016790;28;20236;-72
2023/07/15 13:47:19;;;;;;;1.10;1.10;;;31.60;57.70;;;;;;5017066;28;20228;-71
2023/07/15 13:49:46;;;;;;;1.40;1.40;;;31.60;56.60;;;;;;5017124;28;20232;-71
2023/07/15 13:52:14;;;;;;;1.10;1.10;;;31.60;57.10;;;;;;5016948;28;20228;-71
2023/07/15 13:54:41;;;;;;;1.10;1.10;;;31.60;58.10;;;;;;5016887;28;20217;-71
2023/07/15 13:57:08;;;;;;;1.05;1.05;;;31.60;57.70;;;;;;5016873;28;20202;-73
2023/07/15 13:59:34;;;;;;;1.40;1.40;;;31.60;56.60;;;;;;5016505;28;20563;-72
2023/07/15 14:02:02;;;;;;;1.20;1.20;;;31.70;58.30;;;;;;5016830;28;20209;-71
2023/07/15 14:04:29;;;;;;;1.40;1.40;;;31.70;57.80;;;;;;5016715;28;20221;-72
2023/07/15 14:06:55;;;;;;;1.05;1.05;;;31.80;58.90;;;;;;5016800;28;20217;-72
2023/07/15 14:09:23;;;;;;;1.23;1.23;;;31.90;57.70;;;;;;5016867;28;20208;-71
2023/07/15 14:11:50;;;;;;;1.30;1.20;;;32.00;57.30;;;;;;5015755;28;20201;-74
2023/07/15 14:14:17;;;;;;;1.25;1.15;;;32.00;57.50;;;;;;5016542;28;20218;-70
2023/07/15 14:16:44;;;;;;;1.10;1.10;;;32.30;57.50;;;;;;5016187;28;20208;-71
2023/07/15 14:19:11;;;;;;;1.20;1.10;;;32.40;58.20;;;;;;5016084;28;20185;-70
2023/07/15 14:21:37;;;;;;;1.05;1.05;;;32.50;58.60;;;;;;5015966;28;20692;-71
2023/07/15 14:24:05;;;;;;;1.25;1.25;;;32.60;58.70;;;;;;5016183;28;20226;-71
2023/07/15 14:26:33;;;;;;;0.90;0.90;;;32.50;59.30;;;;;;5016349;28;20186;-70
2023/07/15 14:29:00;;;;;;;1.00;1.00;;;32.40;59.00;;;;;;5015789;28;20312;-70
2023/07/15 14:31:27;;;;;;;1.00;1.00;;;32.30;60.70;;;;;;5015734;28;20691;-70
2023/07/15 14:33:54;;;;;;;1.08;1.08;;;32.10;61.30;;;;;;5015975;28;20228;-70
2023/07/15 14:36:21;;;;;;;1.13;1.13;;;32.00;62.20;;;;;;5015799;28;20233;-71
2023/07/15 14:38:48;;;;;;;1.17;1.17;;;31.90;64.50;;;;;;5016169;28;20186;-71
2023/07/15 14:41:15;;;;;;;1.20;1.20;;;31.90;65.20;;;;;;5016275;28;20567;-71
2023/07/15 14:43:43;;;;;;;1.10;1.10;;;31.80;65.70;;;;;;5034350;23;20233;-68
2023/07/15 14:46:10;;;;;;;1.20;1.20;;;31.80;67.00;;;;;;4995918;28;20665;-68
2023/07/15 14:48:38;;;;;;;1.30;1.30;;;31.70;69.50;;;;;;4996220;28;20226;-67
2023/07/15 14:51:05;;;;;;;1.38;1.38;;;31.60;70.20;;;;;;4995964;28;20692;-68
2023/07/15 14:53:32;;;;;;;1.40;1.40;;;31.40;72.80;;;;;;4996103;28;20233;-68
2023/07/15 14:55:59;;;;;;;1.10;1.10;;;31.20;75.60;;;;;;4996121;28;20202;-68
2023/07/15 14:58:25;;;;;;;1.27;1.27;;;31.00;80.50;;;;;;4996768;28;20622;-68
2023/07/15 15:00:53;;;;;;;1.33;1.33;;;30.80;88.50;;;;;;4998353;28;20198;-67
2023/07/15 15:03:20;;;;;;;1.60;1.60;;;30.60;86.40;;;;;;4996645;28;20210;-67
2023/07/15 15:05:47;;;;;;;2.15;1.60;;;30.40;90.00;;;;;;4996218;28;20213;-67
2023/07/15 15:08:14;;;;;;;1.90;1.90;;;30.20;93.40;;;;;;4995775;28;20586;-67
2023/07/15 15:10:42;;;;;;;1.63;1.63;;;30.10;94.10;;;;;;4995948;28;20206;-67
2023/07/15 15:13:09;;;;;;;1.52;1.52;;;30.00;96.80;;;;;;4995730;28;20202;-68
2023/07/15 15:15:36;;;;;;;1.48;1.48;;;29.90;99.90;;;;;;4995671;28;20212;-68
2023/07/15 15:18:04;;;;;;;1.50;1.50;;;29.90;99.90;;;;;;4995656;28;20202;-67
2023/07/15 15:20:31;;;;;;;1.73;1.70;;;29.90;99.90;;;;;;4995514;28;20214;-68
2023/07/15 15:22:57;;;;;;;1.67;1.65;;;30.00;99.90;;;;;;4994663;28;20206;-68
2023/07/15 15:25:24;;;;;;;1.63;1.63;;;30.20;99.90;;;;;;4995191;28;20225;-68
2023/07/15 15:27:51;;;;;;;1.48;1.48;;;30.50;99.90;;;;;;4995425;28;20229;-68
2023/07/15 15:30:18;;;;;;;1.63;1.63;;;30.90;99.90;;;;;;4995230;28;20565;-68
2023/07/15 15:32:44;;;;;;;1.88;1.88;;;31.40;99.40;;;;;;4995349;28;20202;-68
2023/07/15 15:35:12;;;;;;;1.95;1.85;;;31.50;93.20;;;;;;4995062;28;20229;-68
2023/07/15 15:37:39;;;;;;;1.88;1.88;;;31.60;92.70;;;;;;4995321;28;20589;-68
2023/07/15 15:40:07;;;;;;;1.95;1.95;;;31.50;90.00;;;;;;4995281;28;20206;-68
2023/07/15 15:42:34;;;;;;;2.33;2.22;;;31.40;77.70;;;;;;4995236;28;20202;-68
2023/07/15 15:45:01;;;;;;;1.92;1.83;;;31.30;77.20;;;;;;4994752;28;20229;-68
2023/07/15 15:47:28;;;;;;;2.13;2.03;;;31.30;78.90;;;;;;4995580;28;20225;-68
2023/07/15 15:49:54;;;;;;;1.90;1.90;;;31.40;78.40;;;;;;4995064;28;20206;-68
2023/07/15 15:52:23;;;;;;;1.73;1.73;;;31.40;78.40;;;;;;4995064;28;20198;-68
2023/07/15 15:54:49;;;;;;;1.65;1.65;;;31.40;75.40;;;;;;4995029;28;20226;-67
2023/07/15 15:57:16;;;;;;;1.85;1.80;;;31.40;72.50;;;;;;4995178;28;20227;-67
2023/07/15 15:59:43;;;;;;;1.60;1.60;;;31.50;71.30;;;;;;4995048;28;20194;-68
2023/07/15 16:02:09;;;;;;;1.42;1.42;;;31.60;70.50;;;;;;4994846;28;20206;-68
2023/07/15 16:04:36;;;;;;;1.92;1.92;;;31.70;67.80;;;;;;4994740;28;20255;-68
2023/07/15 16:07:03;;;;;;;3.15;1.58;;;31.90;66.60;;;;;;4994944;28;20202;-68
2023/07/15 16:09:31;;;;;;;1.50;1.50;;;32.00;65.20;;;;;;4994302;28;20225;-69
2023/07/15 16:11:58;;;;;;;1.75;1.65;;;32.20;66.50;;;;;;4994921;28;20217;-68
2023/07/15 16:14:24;;;;;;;1.70;1.70;;;32.30;66.00;;;;;;4994812;28;20226;-68
2023/07/15 16:16:51;;;;;;;1.92;1.92;;;32.30;64.00;;;;;;4994686;28;20190;-68
2023/07/15 16:19:18;;;;;;;2.35;2.15;;;32.50;62.60;;;;;;4994534;28;20198;-69
2023/07/15 16:21:44;;;;;;;1.60;1.58;;;32.50;63.50;;;;;;4994568;28;20318;-68
2023/07/15 16:24:11;;;;;;;1.50;1.50;;;32.50;63.10;;;;;;4994466;28;20233;-68
2023/07/15 16:26:39;;;;;;;1.60;1.50;;;32.50;62.40;;;;;;4994198;28;20198;-68
2023/07/15 16:29:07;;;;;;;1.70;1.60;;;32.50;63.00;;;;;;4994449;28;20230;-69
2023/07/15 16:31:33;;;;;;;1.45;1.40;;;32.50;63.80;;;;;;4994175;28;20253;-69
2023/07/15 16:34:00;;;;;;;1.27;1.27;;;32.40;62.50;;;;;;4993970;28;20229;-68
2023/07/15 16:36:27;;;;;;;1.42;1.42;;;32.50;63.60;;;;;;4994106;28;20542;-68
2023/07/15 16:38:53;;;;;;;1.10;1.10;;;32.60;62.80;;;;;;4994359;28;20222;-68
2023/07/15 16:41:20;;;;;;;1.02;1.02;;;32.50;61.80;;;;;;4994268;28;20206;-68
2023/07/15 16:43:48;;;;;;;1.48;1.48;;;32.30;62.90;;;;;;4993959;28;20245;-69
2023/07/15 16:46:17;;;;;;;1.73;1.63;;;32.20;61.20;;;;;;4994300;28;20202;-68
2023/07/15 16:48:43;;;;;;;1.15;1.15;;;32.10;62.80;;;;;;4994180;28;20305;-68
2023/07/15 16:51:10;;;;;;;1.42;1.35;;;32.10;61.40;;;;;;4993850;28;20252;-68
2023/07/15 16:53:37;;;;;;;1.42;1.42;;;32.10;61.00;;;;;;4993774;28;20720;-69
2023/07/15 16:56:04;;;;;;;1.70;1.60;;;32.00;61.40;;;;;;4993861;28;20620;-68
2023/07/15 16:58:31;;;;;;;1.25;1.25;;;31.90;61.60;;;;;;4994101;28;20202;-68
2023/07/15 17:00:59;;;;;;;1.40;1.40;;;31.90;60.80;;;;;;4994058;28;20202;-69
2023/07/15 17:03:26;;;;;;;1.20;1.20;;;31.70;59.20;;;;;;4993987;28;20253;-68
2023/07/15 17:05:53;;;;;;;1.33;1.33;;;31.60;60.90;;;;;;4993985;28;20210;-68
2023/07/15 17:08:19;;;;;;;1.88;1.73;;;31.40;62.50;;;;;;4993983;28;20217;-69
2023/07/15 17:10:46;;;;;;;1.75;1.70;;;31.20;61.10;;;;;;4993886;28;20213;-68
2023/07/15 17:13:13;;;;;;;1.80;1.80;;;30.90;63.00;;;;;;4993890;28;20206;-68
2023/07/15 17:15:40;;;;;;;1.38;1.38;;;30.60;63.90;;;;;;4994144;28;20237;-69
2023/07/15 17:18:08;;;;;;;1.48;1.45;;;30.40;67.00;;;;;;4993915;28;20198;-69
2023/07/15 17:20:34;;;;;;;1.38;1.38;;;30.10;68.70;;;;;;4993882;28;20209;-69
2023/07/15 17:23:01;;;;;;;1.63;1.58;;;29.90;69.40;;;;;;4993915;28;20632;-68
2023/07/15 17:25:28;;;;;;;1.67;1.58;;;29.70;71.20;;;;;;4993419;28;20228;-67
2023/07/15 17:27:55;;;;;;;1.77;1.67;;;29.50;75.60;;;;;;4993726;28;20209;-67
2023/07/15 17:30:22;;;;;;;1.52;1.52;;;29.40;80.90;;;;;;4993743;28;20202;-68
2023/07/15 17:32:48;;;;;;;1.60;1.50;;;29.20;89.20;;;;;;4993851;28;20198;-68
2023/07/15 17:35:16;;;;;;;1.67;1.63;;;29.10;92.80;;;;;;4993347;28;20732;-68
2023/07/15 17:37:43;;;;;;;1.33;1.33;;;28.90;96.70;;;;;;4993716;28;20202;-67
2023/07/15 17:40:11;;;;;;;1.65;1.63;;;28.80;98.10;;;;;;4993624;28;20210;-68
2023/07/15 17:42:37;;;;;;;1.60;1.50;;;28.60;99.90;;;;;;4993679;28;20206;-68
2023/07/15 17:45:05;;;;;;;1.50;1.40;;;28.50;99.90;;;;;;4993230;28;20713;-68
2023/07/15 17:47:31;;;;;;;1.90;1.80;;;28.40;99.90;;;;;;4996566;28;20255;-68